sensor_id;sensor_type;location;lat;lon;timestamp;P1;durP1;ratioP1;P2;durP2;ratioP2
64543;SDS011;50936;51.660;5.616;2023-02-28T00:01:31;15.63;;;8.90;;
64543;SDS011;50936;51.660;5.616;2023-02-28T00:03:58;15.30;;;7.95;;
64543;SDS011;50936;51.660;5.616;2023-02-28T00:06:26;17.15;;;8.80;;
64543;SDS011;50936;51.660;5.616;2023-02-28T00:08:53;16.75;;;8.93;;
64543;SDS011;50936;51.660;5.616;2023-02-28T00:11:20;16.45;;;8.93;;
64543;SDS011;50936;51.660;5.616;2023-02-28T00:13:48;15.20;;;8.80;;
64543;SDS011;50936;51.660;5.616;2023-02-28T00:16:16;19.13;;;8.57;;
64543;SDS011;50936;51.660;5.616;2023-02-28T00:18:48;18.85;;;9.20;;
64543;SDS011;50936;51.660;5.616;2023-02-28T00:21:16;15.13;;;8.32;;
64543;SDS011;50936;51.660;5.616;2023-02-28T00:23:45;15.95;;;8.95;;
64543;SDS011;50936;51.660;5.616;2023-02-28T00:26:12;18.05;;;9.07;;
64543;SDS011;50936;51.660;5.616;2023-02-28T00:28:43;15.75;;;8.00;;
64543;SDS011;50936;51.660;5.616;2023-02-28T00:31:10;14.48;;;7.28;;
64543;SDS011;50936;51.660;5.616;2023-02-28T00:33:37;12.40;;;7.35;;
64543;SDS011;50936;51.660;5.616;2023-02-28T00:36:05;15.40;;;8.40;;
64543;SDS011;50936;51.660;5.616;2023-02-28T00:38:36;16.23;;;8.10;;
64543;SDS011;50936;51.660;5.616;2023-02-28T00:41:05;14.75;;;8.23;;
64543;SDS011;50936;51.660;5.616;2023-02-28T00:43:34;14.40;;;8.27;;
64543;SDS011;50936;51.660;5.616;2023-02-28T00:46:04;14.73;;;8.02;;
64543;SDS011;50936;51.660;5.616;2023-02-28T00:48:32;15.77;;;8.02;;
64543;SDS011;50936;51.660;5.616;2023-02-28T00:50:59;17.02;;;8.18;;
64543;SDS011;50936;51.660;5.616;2023-02-28T00:53:26;16.05;;;7.60;;
64543;SDS011;50936;51.660;5.616;2023-02-28T00:55:56;16.08;;;7.97;;
64543;SDS011;50936;51.660;5.616;2023-02-28T00:58:24;13.70;;;8.35;;
64543;SDS011;50936;51.660;5.616;2023-02-28T01:00:51;15.63;;;8.00;;
64543;SDS011;50936;51.660;5.616;2023-02-28T01:03:20;13.68;;;7.75;;
64543;SDS011;50936;51.660;5.616;2023-02-28T01:05:48;16.10;;;7.85;;
64543;SDS011;50936;51.660;5.616;2023-02-28T01:08:15;14.52;;;8.13;;
64543;SDS011;50936;51.660;5.616;2023-02-28T01:10:42;15.07;;;7.63;;
64543;SDS011;50936;51.660;5.616;2023-02-28T01:13:10;20.63;;;8.70;;
64543;SDS011;50936;51.660;5.616;2023-02-28T01:15:39;15.48;;;8.30;;
64543;SDS011;50936;51.660;5.616;2023-02-28T01:18:11;15.82;;;8.00;;
64543;SDS011;50936;51.660;5.616;2023-02-28T01:20:38;13.77;;;7.18;;
64543;SDS011;50936;51.660;5.616;2023-02-28T01:23:06;15.25;;;8.13;;
64543;SDS011;50936;51.660;5.616;2023-02-28T01:25:36;16.33;;;8.23;;
64543;SDS011;50936;51.660;5.616;2023-02-28T01:28:04;15.35;;;7.93;;
64543;SDS011;50936;51.660;5.616;2023-02-28T01:30:33;13.10;;;7.78;;
64543;SDS011;50936;51.660;5.616;2023-02-28T01:33:00;15.57;;;7.43;;
64543;SDS011;50936;51.660;5.616;2023-02-28T01:35:27;16.67;;;7.43;;
64543;SDS011;50936;51.660;5.616;2023-02-28T01:37:54;16.17;;;7.95;;
64543;SDS011;50936;51.660;5.616;2023-02-28T01:40:20;13.38;;;7.32;;
64543;SDS011;50936;51.660;5.616;2023-02-28T01:42:48;14.63;;;8.23;;
64543;SDS011;50936;51.660;5.616;2023-02-28T01:45:26;13.52;;;7.05;;
64543;SDS011;50936;51.660;5.616;2023-02-28T01:48:00;12.35;;;7.30;;
64543;SDS011;50936;51.660;5.616;2023-02-28T01:50:35;17.38;;;7.43;;
64543;SDS011;50936;51.660;5.616;2023-02-28T01:53:10;12.82;;;7.07;;
64543;SDS011;50936;51.660;5.616;2023-02-28T01:55:45;13.32;;;7.07;;
64543;SDS011;50936;51.660;5.616;2023-02-28T01:58:19;18.20;;;8.10;;
64543;SDS011;50936;51.660;5.616;2023-02-28T02:00:47;18.60;;;8.18;;
64543;SDS011;50936;51.660;5.616;2023-02-28T02:03:16;14.05;;;7.85;;
64543;SDS011;50936;51.660;5.616;2023-02-28T02:05:46;13.65;;;7.25;;
64543;SDS011;50936;51.660;5.616;2023-02-28T02:08:16;13.18;;;7.88;;
64543;SDS011;50936;51.660;5.616;2023-02-28T02:10:48;13.27;;;7.47;;
64543;SDS011;50936;51.660;5.616;2023-02-28T02:18:54;14.50;;;7.80;;
64543;SDS011;50936;51.660;5.616;2023-02-28T02:25:05;13.50;;;6.75;;
64543;SDS011;50936;51.660;5.616;2023-02-28T02:42:11;13.57;;;6.85;;
64543;SDS011;50936;51.660;5.616;2023-02-28T02:44:50;14.88;;;7.88;;
64543;SDS011;50936;51.660;5.616;2023-02-28T02:47:27;14.38;;;7.05;;
64543;SDS011;50936;51.660;5.616;2023-02-28T02:49:59;13.85;;;7.45;;
64543;SDS011;50936;51.660;5.616;2023-02-28T02:52:34;11.60;;;6.55;;
64543;SDS011;50936;51.660;5.616;2023-02-28T02:55:09;14.40;;;7.22;;
64543;SDS011;50936;51.660;5.616;2023-02-28T03:00:16;14.85;;;7.00;;
64543;SDS011;50936;51.660;5.616;2023-02-28T03:02:49;14.70;;;7.28;;
64543;SDS011;50936;51.660;5.616;2023-02-28T03:05:25;14.52;;;7.32;;
64543;SDS011;50936;51.660;5.616;2023-02-28T03:07:59;13.68;;;6.55;;
64543;SDS011;50936;51.660;5.616;2023-02-28T03:10:33;11.27;;;6.38;;
64543;SDS011;50936;51.660;5.616;2023-02-28T03:16:11;13.10;;;6.28;;
64543;SDS011;50936;51.660;5.616;2023-02-28T03:24:54;11.50;;;6.22;;
64543;SDS011;50936;51.660;5.616;2023-02-28T03:27:41;12.80;;;6.50;;
64543;SDS011;50936;51.660;5.616;2023-02-28T03:33:19;14.32;;;6.90;;
64543;SDS011;50936;51.660;5.616;2023-02-28T03:35:58;13.50;;;6.85;;
64543;SDS011;50936;51.660;5.616;2023-02-28T03:38:33;17.60;;;7.25;;
64543;SDS011;50936;51.660;5.616;2023-02-28T03:41:13;13.13;;;7.03;;
64543;SDS011;50936;51.660;5.616;2023-02-28T03:43:53;14.90;;;7.78;;
64543;SDS011;50936;51.660;5.616;2023-02-28T03:46:27;14.88;;;6.57;;
64543;SDS011;50936;51.660;5.616;2023-02-28T03:49:03;12.57;;;6.28;;
64543;SDS011;50936;51.660;5.616;2023-02-28T03:51:45;13.93;;;6.75;;
64543;SDS011;50936;51.660;5.616;2023-02-28T03:54:18;10.88;;;6.32;;
64543;SDS011;50936;51.660;5.616;2023-02-28T03:57:10;14.02;;;5.63;;
64543;SDS011;50936;51.660;5.616;2023-02-28T03:59:51;14.57;;;5.82;;
64543;SDS011;50936;51.660;5.616;2023-02-28T04:02:26;12.90;;;6.10;;
64543;SDS011;50936;51.660;5.616;2023-02-28T04:04:54;12.73;;;6.00;;
64543;SDS011;50936;51.660;5.616;2023-02-28T04:07:21;11.35;;;6.32;;
64543;SDS011;50936;51.660;5.616;2023-02-28T04:09:48;12.23;;;6.68;;
64543;SDS011;50936;51.660;5.616;2023-02-28T04:12:15;11.75;;;5.63;;
64543;SDS011;50936;51.660;5.616;2023-02-28T04:14:41;11.32;;;5.28;;
64543;SDS011;50936;51.660;5.616;2023-02-28T04:17:08;11.65;;;6.07;;
64543;SDS011;50936;51.660;5.616;2023-02-28T04:19:35;10.32;;;5.65;;
64543;SDS011;50936;51.660;5.616;2023-02-28T04:22:02;11.73;;;5.55;;
64543;SDS011;50936;51.660;5.616;2023-02-28T04:24:29;13.98;;;6.05;;
64543;SDS011;50936;51.660;5.616;2023-02-28T04:26:56;12.20;;;6.05;;
64543;SDS011;50936;51.660;5.616;2023-02-28T04:29:25;9.90;;;5.60;;
64543;SDS011;50936;51.660;5.616;2023-02-28T04:31:56;9.35;;;4.97;;
64543;SDS011;50936;51.660;5.616;2023-02-28T04:34:26;9.38;;;5.22;;
64543;SDS011;50936;51.660;5.616;2023-02-28T04:36:55;10.68;;;5.80;;
64543;SDS011;50936;51.660;5.616;2023-02-28T04:39:38;10.38;;;5.80;;
64543;SDS011;50936;51.660;5.616;2023-02-28T04:42:05;12.48;;;5.40;;
64543;SDS011;50936;51.660;5.616;2023-02-28T04:44:32;10.10;;;5.93;;
64543;SDS011;50936;51.660;5.616;2023-02-28T04:47:00;10.43;;;5.72;;
64543;SDS011;50936;51.660;5.616;2023-02-28T04:49:27;8.95;;;5.63;;
64543;SDS011;50936;51.660;5.616;2023-02-28T04:51:53;11.45;;;5.90;;
64543;SDS011;50936;51.660;5.616;2023-02-28T04:54:20;10.90;;;5.95;;
64543;SDS011;50936;51.660;5.616;2023-02-28T04:56:47;10.07;;;5.90;;
64543;SDS011;50936;51.660;5.616;2023-02-28T04:59:16;9.38;;;5.60;;
64543;SDS011;50936;51.660;5.616;2023-02-28T05:01:47;10.10;;;5.50;;
64543;SDS011;50936;51.660;5.616;2023-02-28T05:04:15;9.88;;;5.45;;
64543;SDS011;50936;51.660;5.616;2023-02-28T05:06:43;10.95;;;5.75;;
64543;SDS011;50936;51.660;5.616;2023-02-28T05:09:11;10.43;;;5.97;;
64543;SDS011;50936;51.660;5.616;2023-02-28T05:11:38;10.80;;;5.97;;
64543;SDS011;50936;51.660;5.616;2023-02-28T05:14:09;15.25;;;6.25;;
64543;SDS011;50936;51.660;5.616;2023-02-28T05:16:39;13.65;;;6.00;;
64543;SDS011;50936;51.660;5.616;2023-02-28T05:19:06;9.48;;;5.40;;
64543;SDS011;50936;51.660;5.616;2023-02-28T05:24:14;10.93;;;5.32;;
64543;SDS011;50936;51.660;5.616;2023-02-28T05:26:41;10.95;;;5.72;;
64543;SDS011;50936;51.660;5.616;2023-02-28T05:29:09;11.98;;;5.35;;
64543;SDS011;50936;51.660;5.616;2023-02-28T05:31:36;10.88;;;5.65;;
64543;SDS011;50936;51.660;5.616;2023-02-28T05:34:05;10.82;;;5.80;;
64543;SDS011;50936;51.660;5.616;2023-02-28T05:36:32;9.50;;;5.10;;
64543;SDS011;50936;51.660;5.616;2023-02-28T05:39:00;10.45;;;5.60;;
64543;SDS011;50936;51.660;5.616;2023-02-28T05:41:27;9.57;;;6.28;;
64543;SDS011;50936;51.660;5.616;2023-02-28T05:43:54;10.15;;;5.10;;
64543;SDS011;50936;51.660;5.616;2023-02-28T05:46:21;10.55;;;5.07;;
64543;SDS011;50936;51.660;5.616;2023-02-28T05:48:48;8.25;;;5.10;;
64543;SDS011;50936;51.660;5.616;2023-02-28T05:51:16;10.60;;;5.15;;
64543;SDS011;50936;51.660;5.616;2023-02-28T05:53:44;12.27;;;5.70;;
64543;SDS011;50936;51.660;5.616;2023-02-28T05:56:11;9.98;;;5.20;;
64543;SDS011;50936;51.660;5.616;2023-02-28T05:58:38;13.10;;;5.70;;
64543;SDS011;50936;51.660;5.616;2023-02-28T06:01:21;11.13;;;5.85;;
64543;SDS011;50936;51.660;5.616;2023-02-28T06:04:01;9.48;;;5.30;;
64543;SDS011;50936;51.660;5.616;2023-02-28T06:06:31;10.25;;;5.88;;
64543;SDS011;50936;51.660;5.616;2023-02-28T06:09:03;12.13;;;5.90;;
64543;SDS011;50936;51.660;5.616;2023-02-28T06:11:32;10.45;;;5.30;;
64543;SDS011;50936;51.660;5.616;2023-02-28T06:13:59;9.75;;;5.53;;
64543;SDS011;50936;51.660;5.616;2023-02-28T06:16:29;10.85;;;5.80;;
64543;SDS011;50936;51.660;5.616;2023-02-28T06:19:00;11.98;;;5.95;;
64543;SDS011;50936;51.660;5.616;2023-02-28T06:21:30;10.75;;;5.88;;
64543;SDS011;50936;51.660;5.616;2023-02-28T06:23:58;11.75;;;5.82;;
64543;SDS011;50936;51.660;5.616;2023-02-28T06:26:25;12.32;;;6.03;;
64543;SDS011;50936;51.660;5.616;2023-02-28T06:28:52;10.55;;;6.15;;
64543;SDS011;50936;51.660;5.616;2023-02-28T06:31:20;14.80;;;6.43;;
64543;SDS011;50936;51.660;5.616;2023-02-28T06:33:48;11.95;;;5.80;;
64543;SDS011;50936;51.660;5.616;2023-02-28T06:36:15;13.02;;;6.30;;
64543;SDS011;50936;51.660;5.616;2023-02-28T06:38:43;11.88;;;6.43;;
64543;SDS011;50936;51.660;5.616;2023-02-28T06:41:11;11.60;;;6.07;;
64543;SDS011;50936;51.660;5.616;2023-02-28T06:43:40;13.18;;;6.50;;
64543;SDS011;50936;51.660;5.616;2023-02-28T06:46:16;10.82;;;6.10;;
64543;SDS011;50936;51.660;5.616;2023-02-28T06:48:43;11.82;;;6.38;;
64543;SDS011;50936;51.660;5.616;2023-02-28T06:51:16;14.00;;;5.60;;
64543;SDS011;50936;51.660;5.616;2023-02-28T06:53:48;10.90;;;5.97;;
64543;SDS011;50936;51.660;5.616;2023-02-28T06:56:16;12.98;;;6.38;;
64543;SDS011;50936;51.660;5.616;2023-02-28T06:58:48;13.65;;;6.05;;
64543;SDS011;50936;51.660;5.616;2023-02-28T07:01:17;10.45;;;5.50;;
64543;SDS011;50936;51.660;5.616;2023-02-28T07:03:45;12.30;;;6.60;;
64543;SDS011;50936;51.660;5.616;2023-02-28T07:06:13;10.77;;;5.60;;
64543;SDS011;50936;51.660;5.616;2023-02-28T07:08:39;12.32;;;5.90;;
64543;SDS011;50936;51.660;5.616;2023-02-28T07:11:07;9.52;;;5.30;;
64543;SDS011;50936;51.660;5.616;2023-02-28T07:13:34;11.02;;;6.20;;
64543;SDS011;50936;51.660;5.616;2023-02-28T07:16:03;11.77;;;5.60;;
64543;SDS011;50936;51.660;5.616;2023-02-28T07:18:34;13.40;;;6.45;;
64543;SDS011;50936;51.660;5.616;2023-02-28T07:21:02;13.10;;;5.88;;
64543;SDS011;50936;51.660;5.616;2023-02-28T07:23:32;11.02;;;5.65;;
64543;SDS011;50936;51.660;5.616;2023-02-28T07:26:00;12.88;;;6.20;;
64543;SDS011;50936;51.660;5.616;2023-02-28T07:28:27;10.00;;;5.75;;
64543;SDS011;50936;51.660;5.616;2023-02-28T07:30:54;11.15;;;5.97;;
64543;SDS011;50936;51.660;5.616;2023-02-28T07:33:21;14.60;;;5.60;;
64543;SDS011;50936;51.660;5.616;2023-02-28T07:35:48;10.43;;;5.40;;
64543;SDS011;50936;51.660;5.616;2023-02-28T07:38:15;15.45;;;5.45;;
64543;SDS011;50936;51.660;5.616;2023-02-28T07:40:42;10.70;;;5.25;;
64543;SDS011;50936;51.660;5.616;2023-02-28T07:43:09;8.85;;;4.55;;
64543;SDS011;50936;51.660;5.616;2023-02-28T07:45:36;10.38;;;4.63;;
64543;SDS011;50936;51.660;5.616;2023-02-28T07:48:02;8.75;;;4.65;;
64543;SDS011;50936;51.660;5.616;2023-02-28T07:50:30;7.05;;;3.95;;
64543;SDS011;50936;51.660;5.616;2023-02-28T07:52:58;8.32;;;3.75;;
64543;SDS011;50936;51.660;5.616;2023-02-28T07:55:25;14.55;;;6.35;;
64543;SDS011;50936;51.660;5.616;2023-02-28T07:57:52;9.07;;;4.20;;
64543;SDS011;50936;51.660;5.616;2023-02-28T08:00:20;7.00;;;3.58;;
64543;SDS011;50936;51.660;5.616;2023-02-28T08:02:48;5.43;;;2.78;;
64543;SDS011;50936;51.660;5.616;2023-02-28T08:05:15;5.88;;;2.50;;
64543;SDS011;50936;51.660;5.616;2023-02-28T08:07:42;6.15;;;2.90;;
64543;SDS011;50936;51.660;5.616;2023-02-28T08:10:09;5.30;;;2.97;;
64543;SDS011;50936;51.660;5.616;2023-02-28T08:12:36;6.22;;;2.78;;
64543;SDS011;50936;51.660;5.616;2023-02-28T08:15:03;4.45;;;2.33;;
64543;SDS011;50936;51.660;5.616;2023-02-28T08:17:30;4.30;;;2.35;;
64543;SDS011;50936;51.660;5.616;2023-02-28T08:20:00;5.13;;;2.70;;
64543;SDS011;50936;51.660;5.616;2023-02-28T08:22:27;3.30;;;2.15;;
64543;SDS011;50936;51.660;5.616;2023-02-28T08:24:54;4.45;;;1.90;;
64543;SDS011;50936;51.660;5.616;2023-02-28T08:27:21;5.22;;;2.75;;
64543;SDS011;50936;51.660;5.616;2023-02-28T08:29:48;7.65;;;2.50;;
64543;SDS011;50936;51.660;5.616;2023-02-28T08:32:15;3.75;;;2.35;;
64543;SDS011;50936;51.660;5.616;2023-02-28T08:34:54;3.50;;;2.22;;
64543;SDS011;50936;51.660;5.616;2023-02-28T08:37:21;6.20;;;2.95;;
64543;SDS011;50936;51.660;5.616;2023-02-28T08:39:48;5.90;;;2.00;;
64543;SDS011;50936;51.660;5.616;2023-02-28T08:42:15;7.55;;;1.95;;
64543;SDS011;50936;51.660;5.616;2023-02-28T08:44:42;4.97;;;1.73;;
64543;SDS011;50936;51.660;5.616;2023-02-28T08:47:09;4.30;;;2.53;;
64543;SDS011;50936;51.660;5.616;2023-02-28T08:49:37;7.00;;;2.60;;
64543;SDS011;50936;51.660;5.616;2023-02-28T08:52:04;4.82;;;2.72;;
64543;SDS011;50936;51.660;5.616;2023-02-28T08:54:31;6.20;;;2.35;;
64543;SDS011;50936;51.660;5.616;2023-02-28T08:56:59;6.22;;;2.88;;
64543;SDS011;50936;51.660;5.616;2023-02-28T08:59:27;4.97;;;2.58;;
64543;SDS011;50936;51.660;5.616;2023-02-28T09:01:55;8.02;;;3.42;;
64543;SDS011;50936;51.660;5.616;2023-02-28T09:04:22;5.38;;;2.70;;
64543;SDS011;50936;51.660;5.616;2023-02-28T09:06:50;5.03;;;2.47;;
64543;SDS011;50936;51.660;5.616;2023-02-28T09:09:17;2.33;;;1.70;;
64543;SDS011;50936;51.660;5.616;2023-02-28T09:11:44;4.57;;;2.22;;
64543;SDS011;50936;51.660;5.616;2023-02-28T09:14:11;2.40;;;1.60;;
64543;SDS011;50936;51.660;5.616;2023-02-28T09:16:38;2.33;;;1.55;;
64543;SDS011;50936;51.660;5.616;2023-02-28T09:19:05;4.40;;;2.20;;
64543;SDS011;50936;51.660;5.616;2023-02-28T09:21:32;6.05;;;2.13;;
64543;SDS011;50936;51.660;5.616;2023-02-28T09:23:59;4.63;;;2.30;;
64543;SDS011;50936;51.660;5.616;2023-02-28T09:26:26;4.15;;;2.05;;
64543;SDS011;50936;51.660;5.616;2023-02-28T09:29:08;6.15;;;2.55;;
64543;SDS011;50936;51.660;5.616;2023-02-28T09:31:35;3.42;;;1.75;;
64543;SDS011;50936;51.660;5.616;2023-02-28T09:34:03;4.75;;;2.35;;
64543;SDS011;50936;51.660;5.616;2023-02-28T09:36:31;2.03;;;1.33;;
64543;SDS011;50936;51.660;5.616;2023-02-28T09:39:10;4.32;;;2.10;;
64543;SDS011;50936;51.660;5.616;2023-02-28T09:41:43;4.13;;;2.35;;
64543;SDS011;50936;51.660;5.616;2023-02-28T09:44:20;5.10;;;2.10;;
64543;SDS011;50936;51.660;5.616;2023-02-28T09:46:55;5.40;;;2.08;;
64543;SDS011;50936;51.660;5.616;2023-02-28T09:49:37;3.13;;;1.63;;
64543;SDS011;50936;51.660;5.616;2023-02-28T09:52:11;4.78;;;2.25;;
64543;SDS011;50936;51.660;5.616;2023-02-28T09:55:00;3.70;;;1.98;;
64543;SDS011;50936;51.660;5.616;2023-02-28T09:58:08;2.95;;;1.70;;
64543;SDS011;50936;51.660;5.616;2023-02-28T10:01:03;4.13;;;2.00;;
64543;SDS011;50936;51.660;5.616;2023-02-28T10:03:42;3.03;;;1.92;;
64543;SDS011;50936;51.660;5.616;2023-02-28T10:06:18;5.78;;;2.33;;
64543;SDS011;50936;51.660;5.616;2023-02-28T10:14:06;4.80;;;1.60;;
64543;SDS011;50936;51.660;5.616;2023-02-28T10:17:00;5.80;;;1.90;;
64543;SDS011;50936;51.660;5.616;2023-02-28T10:19:55;3.40;;;1.73;;
64543;SDS011;50936;51.660;5.616;2023-02-28T10:22:35;2.88;;;1.88;;
64543;SDS011;50936;51.660;5.616;2023-02-28T10:25:21;3.38;;;1.90;;
64543;SDS011;50936;51.660;5.616;2023-02-28T10:28:13;3.25;;;1.90;;
64543;SDS011;50936;51.660;5.616;2023-02-28T10:30:43;3.88;;;1.92;;
64543;SDS011;50936;51.660;5.616;2023-02-28T10:33:18;2.63;;;1.73;;
64543;SDS011;50936;51.660;5.616;2023-02-28T10:36:04;4.32;;;1.70;;
64543;SDS011;50936;51.660;5.616;2023-02-28T10:38:34;8.43;;;1.60;;
64543;SDS011;50936;51.660;5.616;2023-02-28T10:41:16;3.17;;;1.70;;
64543;SDS011;50936;51.660;5.616;2023-02-28T10:44:21;3.22;;;2.03;;
64543;SDS011;50936;51.660;5.616;2023-02-28T10:46:50;4.55;;;1.80;;
64543;SDS011;50936;51.660;5.616;2023-02-28T10:49:27;4.40;;;1.83;;
64543;SDS011;50936;51.660;5.616;2023-02-28T10:51:57;3.28;;;1.90;;
64543;SDS011;50936;51.660;5.616;2023-02-28T10:57:35;3.13;;;1.90;;
64543;SDS011;50936;51.660;5.616;2023-02-28T11:00:06;4.60;;;1.92;;
64543;SDS011;50936;51.660;5.616;2023-02-28T11:02:43;2.58;;;1.25;;
64543;SDS011;50936;51.660;5.616;2023-02-28T11:05:32;3.90;;;1.60;;
64543;SDS011;50936;51.660;5.616;2023-02-28T11:08:12;2.80;;;1.63;;
64543;SDS011;50936;51.660;5.616;2023-02-28T11:10:56;3.05;;;1.58;;
64543;SDS011;50936;51.660;5.616;2023-02-28T11:13:34;3.20;;;1.80;;
64543;SDS011;50936;51.660;5.616;2023-02-28T11:16:07;2.85;;;1.63;;
64543;SDS011;50936;51.660;5.616;2023-02-28T11:21:26;3.03;;;1.90;;
64543;SDS011;50936;51.660;5.616;2023-02-28T11:26:59;3.63;;;1.75;;
64543;SDS011;50936;51.660;5.616;2023-02-28T11:32:09;5.22;;;2.25;;
64543;SDS011;50936;51.660;5.616;2023-02-28T11:34:40;3.70;;;1.80;;
64543;SDS011;50936;51.660;5.616;2023-02-28T11:37:11;3.15;;;1.92;;
64543;SDS011;50936;51.660;5.616;2023-02-28T11:39:43;3.80;;;1.70;;
64543;SDS011;50936;51.660;5.616;2023-02-28T11:42:28;3.50;;;1.90;;
64543;SDS011;50936;51.660;5.616;2023-02-28T12:02:24;3.63;;;1.90;;
64543;SDS011;50936;51.660;5.616;2023-02-28T12:05:11;3.80;;;1.95;;
64543;SDS011;50936;51.660;5.616;2023-02-28T12:10:42;3.17;;;2.22;;
64543;SDS011;50936;51.660;5.616;2023-02-28T12:19:39;3.60;;;1.95;;
64543;SDS011;50936;51.660;5.616;2023-02-28T12:24:43;3.67;;;2.00;;
64543;SDS011;50936;51.660;5.616;2023-02-28T12:27:57;4.88;;;2.13;;
64543;SDS011;50936;51.660;5.616;2023-02-28T12:30:25;3.78;;;2.08;;
64543;SDS011;50936;51.660;5.616;2023-02-28T12:33:04;3.38;;;1.85;;
64543;SDS011;50936;51.660;5.616;2023-02-28T12:35:47;3.10;;;2.00;;
64543;SDS011;50936;51.660;5.616;2023-02-28T12:38:24;4.30;;;2.03;;
64543;SDS011;50936;51.660;5.616;2023-02-28T12:41:02;5.85;;;2.75;;
64543;SDS011;50936;51.660;5.616;2023-02-28T12:43:42;4.60;;;1.85;;
64543;SDS011;50936;51.660;5.616;2023-02-28T12:46:17;4.32;;;2.15;;
64543;SDS011;50936;51.660;5.616;2023-02-28T12:49:04;10.23;;;2.28;;
64543;SDS011;50936;51.660;5.616;2023-02-28T12:51:39;3.60;;;1.85;;
64543;SDS011;50936;51.660;5.616;2023-02-28T12:59:36;3.97;;;2.30;;
64543;SDS011;50936;51.660;5.616;2023-02-28T13:04:57;5.13;;;2.35;;
64543;SDS011;50936;51.660;5.616;2023-02-28T13:08:22;4.15;;;1.92;;
64543;SDS011;50936;51.660;5.616;2023-02-28T13:11:05;5.38;;;2.40;;
64543;SDS011;50936;51.660;5.616;2023-02-28T13:13:46;4.03;;;2.20;;
64543;SDS011;50936;51.660;5.616;2023-02-28T13:16:14;3.78;;;2.05;;
64543;SDS011;50936;51.660;5.616;2023-02-28T13:18:45;4.38;;;2.28;;
64543;SDS011;50936;51.660;5.616;2023-02-28T13:21:23;3.63;;;2.05;;
64543;SDS011;50936;51.660;5.616;2023-02-28T13:23:57;2.90;;;1.65;;
64543;SDS011;50936;51.660;5.616;2023-02-28T13:29:05;4.90;;;2.00;;
64543;SDS011;50936;51.660;5.616;2023-02-28T13:32:18;3.35;;;1.80;;
64543;SDS011;50936;51.660;5.616;2023-02-28T13:34:49;4.18;;;2.50;;
64543;SDS011;50936;51.660;5.616;2023-02-28T13:37:34;5.50;;;2.60;;
64543;SDS011;50936;51.660;5.616;2023-02-28T13:42:47;4.70;;;2.47;;
64543;SDS011;50936;51.660;5.616;2023-02-28T13:45:20;3.67;;;1.73;;
64543;SDS011;50936;51.660;5.616;2023-02-28T13:47:55;5.47;;;2.10;;
64543;SDS011;50936;51.660;5.616;2023-02-28T14:01:25;3.75;;;2.40;;
64543;SDS011;50936;51.660;5.616;2023-02-28T14:07:33;5.28;;;2.42;;
64543;SDS011;50936;51.660;5.616;2023-02-28T14:10:20;5.13;;;2.67;;
64543;SDS011;50936;51.660;5.616;2023-02-28T14:12:58;6.78;;;2.65;;
64543;SDS011;50936;51.660;5.616;2023-02-28T14:17:59;4.32;;;2.42;;
64543;SDS011;50936;51.660;5.616;2023-02-28T14:20:31;6.55;;;2.75;;
64543;SDS011;50936;51.660;5.616;2023-02-28T14:23:09;4.00;;;2.15;;
64543;SDS011;50936;51.660;5.616;2023-02-28T14:26:03;5.68;;;3.05;;
64543;SDS011;50936;51.660;5.616;2023-02-28T14:28:45;3.67;;;1.98;;
64543;SDS011;50936;51.660;5.616;2023-02-28T14:31:48;4.57;;;2.35;;
64543;SDS011;50936;51.660;5.616;2023-02-28T14:37:28;4.85;;;2.30;;
64543;SDS011;50936;51.660;5.616;2023-02-28T14:40:03;4.43;;;2.45;;
64543;SDS011;50936;51.660;5.616;2023-02-28T14:42:32;5.68;;;2.60;;
64543;SDS011;50936;51.660;5.616;2023-02-28T14:45:04;3.53;;;1.90;;
64543;SDS011;50936;51.660;5.616;2023-02-28T14:47:32;5.57;;;2.85;;
64543;SDS011;50936;51.660;5.616;2023-02-28T14:50:02;3.45;;;2.17;;
64543;SDS011;50936;51.660;5.616;2023-02-28T14:52:31;5.70;;;2.92;;
64543;SDS011;50936;51.660;5.616;2023-02-28T14:55:06;5.53;;;2.10;;
64543;SDS011;50936;51.660;5.616;2023-02-28T14:57:43;5.25;;;2.30;;
64543;SDS011;50936;51.660;5.616;2023-02-28T15:00:29;5.78;;;2.67;;
64543;SDS011;50936;51.660;5.616;2023-02-28T15:03:00;6.32;;;2.70;;
64543;SDS011;50936;51.660;5.616;2023-02-28T15:08:22;6.50;;;2.58;;
64543;SDS011;50936;51.660;5.616;2023-02-28T15:10:56;3.35;;;2.10;;
64543;SDS011;50936;51.660;5.616;2023-02-28T15:13:34;5.32;;;3.10;;
64543;SDS011;50936;51.660;5.616;2023-02-28T15:16:17;4.05;;;2.22;;
64543;SDS011;50936;51.660;5.616;2023-02-28T15:18:49;4.47;;;2.70;;
64543;SDS011;50936;51.660;5.616;2023-02-28T15:21:23;7.30;;;2.70;;
64543;SDS011;50936;51.660;5.616;2023-02-28T15:26:44;6.45;;;2.72;;
64543;SDS011;50936;51.660;5.616;2023-02-28T15:29:20;4.97;;;2.45;;
64543;SDS011;50936;51.660;5.616;2023-02-28T15:32:03;5.42;;;1.93;;
64543;SDS011;50936;51.660;5.616;2023-02-28T15:42:58;4.85;;;2.80;;
64543;SDS011;50936;51.660;5.616;2023-02-28T15:45:59;6.35;;;2.65;;
64543;SDS011;50936;51.660;5.616;2023-02-28T15:48:44;5.93;;;2.83;;
64543;SDS011;50936;51.660;5.616;2023-02-28T15:51:17;4.70;;;2.67;;
64543;SDS011;50936;51.660;5.616;2023-02-28T15:54:02;4.35;;;2.55;;
64543;SDS011;50936;51.660;5.616;2023-02-28T15:56:44;6.53;;;3.22;;
64543;SDS011;50936;51.660;5.616;2023-02-28T15:59:28;2.00;;;1.67;;
64543;SDS011;50936;51.660;5.616;2023-02-28T16:04:37;5.65;;;2.60;;
64543;SDS011;50936;51.660;5.616;2023-02-28T16:07:41;4.40;;;2.75;;
64543;SDS011;50936;51.660;5.616;2023-02-28T16:10:10;5.10;;;2.97;;
64543;SDS011;50936;51.660;5.616;2023-02-28T16:12:40;4.38;;;2.65;;
64543;SDS011;50936;51.660;5.616;2023-02-28T16:15:14;5.70;;;3.05;;
64543;SDS011;50936;51.660;5.616;2023-02-28T16:17:47;5.38;;;3.28;;
64543;SDS011;50936;51.660;5.616;2023-02-28T16:20:16;6.38;;;2.83;;
64543;SDS011;50936;51.660;5.616;2023-02-28T16:22:51;4.72;;;3.65;;
64543;SDS011;50936;51.660;5.616;2023-02-28T16:25:20;7.63;;;3.10;;
64543;SDS011;50936;51.660;5.616;2023-02-28T16:27:54;6.80;;;2.95;;
64543;SDS011;50936;51.660;5.616;2023-02-28T16:30:27;5.53;;;3.10;;
64543;SDS011;50936;51.660;5.616;2023-02-28T16:32:59;5.78;;;3.17;;
64543;SDS011;50936;51.660;5.616;2023-02-28T16:35:26;4.32;;;2.72;;
64543;SDS011;50936;51.660;5.616;2023-02-28T16:37:53;4.82;;;2.97;;
64543;SDS011;50936;51.660;5.616;2023-02-28T16:40:22;5.50;;;3.22;;
64543;SDS011;50936;51.660;5.616;2023-02-28T16:42:53;4.45;;;2.72;;
64543;SDS011;50936;51.660;5.616;2023-02-28T16:45:26;4.70;;;3.03;;
64543;SDS011;50936;51.660;5.616;2023-02-28T16:47:55;5.00;;;2.78;;
64543;SDS011;50936;51.660;5.616;2023-02-28T16:50:25;5.85;;;3.50;;
64543;SDS011;50936;51.660;5.616;2023-02-28T16:52:58;4.78;;;2.80;;
64543;SDS011;50936;51.660;5.616;2023-02-28T16:55:26;7.05;;;3.15;;
64543;SDS011;50936;51.660;5.616;2023-02-28T16:57:54;8.07;;;3.47;;
64543;SDS011;50936;51.660;5.616;2023-02-28T17:00:25;5.75;;;3.30;;
64543;SDS011;50936;51.660;5.616;2023-02-28T17:02:54;4.55;;;2.63;;
64543;SDS011;50936;51.660;5.616;2023-02-28T17:05:22;5.63;;;2.97;;
64543;SDS011;50936;51.660;5.616;2023-02-28T17:07:50;4.90;;;2.85;;
64543;SDS011;50936;51.660;5.616;2023-02-28T17:12:47;5.45;;;2.92;;
64543;SDS011;50936;51.660;5.616;2023-02-28T17:15:16;5.43;;;3.10;;
64543;SDS011;50936;51.660;5.616;2023-02-28T17:17:45;6.35;;;3.30;;
64543;SDS011;50936;51.660;5.616;2023-02-28T17:20:14;6.72;;;3.47;;
64543;SDS011;50936;51.660;5.616;2023-02-28T17:22:50;7.40;;;3.90;;
64543;SDS011;50936;51.660;5.616;2023-02-28T17:25:17;9.60;;;4.57;;
64543;SDS011;50936;51.660;5.616;2023-02-28T17:27:45;8.57;;;4.72;;
64543;SDS011;50936;51.660;5.616;2023-02-28T17:30:21;7.28;;;4.15;;
64543;SDS011;50936;51.660;5.616;2023-02-28T17:32:51;8.40;;;4.03;;
64543;SDS011;50936;51.660;5.616;2023-02-28T17:35:19;7.75;;;4.00;;